EHFZ

F16-a Sea

F16-a Sea, The Netherlands
METAR EHFZ 171355Z AUTO 19008KT 160V270 9000 DZ FEW004 SCT006 BKN009 08/07 Q1013 W///H///
Observed Flight Rules
Dec-17 @ 13:55 UTC (35 minutes ago) Instrument Flight Rules
Wind Visibility Clouds Conditions
190° at 8 knots 8,996 meters
  • Few at 400' AGL
  • Scattered at 600' AGL
  • Broken at 900' AGL
  • Drizzle
Temperatures Readings
Current 8°C / 46°F
Dewpoint 7°C / 45°F
Humidity 93%
Altimeter 29.91" Hg
Pressure 1013 hPa
Elevation 50
METAR EHFZ 171355Z AUTO 19008KT 160V270 9000 DZ FEW004 SCT006 BKN009 08/07 Q1013 W///H///
Observed Flight Rules
Dec-17 @ 13:55 UTC
(35 minutes ago)
IFR
Wind Visibility
190° at 8 knots 8,996 meters
Clouds
  • Few at 400' AGL
  • Scattered at 600' AGL
  • Broken at 900' AGL
Conditions
  • Drizzle
Temperature Dewpoint
8°C / 46°F 7°C / 45°F
Humidity Altimeter Pressure
93% 29.91" Hg 1013 hPa